UAL311 KEWR-KBOS
Flight info
| Callsign | UAL311 |
|---|---|
| Flight time | 0h 36m |
| Altitude | 21000 |
| Route | MERIT ROBUC3 |
| Aircraft | B38M/M-SDE1FGHILORVWXY/HB1 |
Departure
| Time | 2026-05-07 17:45 |
|---|---|
| Airport | Newark Liberty International Airport (KEWR) |
Arrival
| Time | 2026-05-07 18:21 |
|---|---|
| Airport | Boston Logan International Airport (KBOS) |
| Time | Latitude | Longitude | Altitude | Speed | Heading |
|---|---|---|---|---|---|
| 2026-05-07 17:28 | 40.68441 | -74.18387 | 25 ft | 0 kts | 185° |
| 2026-05-07 17:37 | 40.68442 | -74.18387 | 25 ft | 1 kts | 185° |
| 2026-05-07 17:37 | 40.68466 | -74.18384 | 25 ft | 4 kts | 185° |
| 2026-05-07 17:38 | 40.68493 | -74.18381 | 25 ft | 4 kts | 185° |
| 2026-05-07 17:38 | 40.68518 | -74.18378 | 28 ft | 1 kts | 185° |
| 2026-05-07 17:38 | 40.68519 | -74.18378 | 27 ft | 0 kts | 185° |
| 2026-05-07 17:40 | 40.68511 | -74.18379 | 25 ft | 3 kts | 185° |
| 2026-05-07 17:40 | 40.68495 | -74.18344 | 26 ft | 8 kts | 83° |
| 2026-05-07 17:41 | 40.68498 | -74.18245 | 25 ft | 14 kts | 94° |
| 2026-05-07 17:41 | 40.68458 | -74.18111 | 26 ft | 19 kts | 132° |
| 2026-05-07 17:41 | 40.68385 | -74.17946 | 27 ft | 23 kts | 115° |
| 2026-05-07 17:41 | 40.68321 | -74.17772 | 27 ft | 13 kts | 126° |
| 2026-05-07 17:42 | 40.68242 | -74.17777 | 24 ft | 13 kts | 204° |
| 2026-05-07 17:42 | 40.68152 | -74.17836 | 24 ft | 16 kts | 206° |
| 2026-05-07 17:42 | 40.68049 | -74.17901 | 24 ft | 16 kts | 206° |
| 2026-05-07 17:42 | 40.67939 | -74.17971 | 25 ft | 19 kts | 205° |
| 2026-05-07 17:43 | 40.67815 | -74.18048 | 29 ft | 21 kts | 208° |
| 2026-05-07 17:43 | 40.67685 | -74.18130 | 29 ft | 16 kts | 192° |
| 2026-05-07 17:43 | 40.67610 | -74.18062 | 27 ft | 8 kts | 126° |
| 2026-05-07 17:43 | 40.67603 | -74.18050 | 26 ft | 3 kts | 127° |
| 2026-05-07 17:44 | 40.67571 | -74.17990 | 26 ft | 14 kts | 114° |
| 2026-05-07 17:44 | 40.67661 | -74.17867 | 24 ft | 29 kts | 27° |
| 2026-05-07 17:44 | 40.68026 | -74.17633 | 27 ft | 95 kts | 26° |
| 2026-05-07 17:44 | 40.68822 | -74.17137 | 27 ft | 156 kts | 26° |
| 2026-05-07 17:45 | 40.69873 | -74.16412 | 409 ft | 178 kts | 23° |
| 2026-05-07 17:45 | 40.70992 | -74.15586 | 1128 ft | 191 kts | 29° |
| 2026-05-07 17:45 | 40.72058 | -74.14480 | 1886 ft | 204 kts | 40° |
| 2026-05-07 17:45 | 40.73202 | -74.13116 | 2346 ft | 234 kts | 39° |
| 2026-05-07 17:46 | 40.74456 | -74.11603 | 3120 ft | 254 kts | 43° |
| 2026-05-07 17:46 | 40.75636 | -74.09828 | 4162 ft | 258 kts | 48° |
| 2026-05-07 17:46 | 40.76791 | -74.08010 | 5171 ft | 263 kts | 46° |
| 2026-05-07 17:46 | 40.78017 | -74.06163 | 6147 ft | 271 kts | 45° |
| 2026-05-07 17:47 | 40.79274 | -74.04267 | 7022 ft | 278 kts | 44° |
| 2026-05-07 17:47 | 40.80577 | -74.02298 | 7762 ft | 291 kts | 44° |
| 2026-05-07 17:47 | 40.81940 | -74.00233 | 8503 ft | 304 kts | 44° |
| 2026-05-07 17:47 | 40.83358 | -73.98082 | 9247 ft | 317 kts | 43° |
| 2026-05-07 17:48 | 40.84821 | -73.95861 | 9947 ft | 328 kts | 43° |
| 2026-05-07 17:48 | 40.86354 | -73.93535 | 10527 ft | 344 kts | 44° |
| 2026-05-07 17:48 | 40.87921 | -73.91153 | 11071 ft | 358 kts | 44° |
| 2026-05-07 17:48 | 40.89576 | -73.88634 | 11667 ft | 370 kts | 45° |
| 2026-05-07 17:49 | 40.91287 | -73.86028 | 12345 ft | 380 kts | 45° |
| 2026-05-07 17:49 | 40.93037 | -73.83362 | 13077 ft | 388 kts | 45° |
| 2026-05-07 17:49 | 40.94820 | -73.80643 | 13812 ft | 395 kts | 45° |
| 2026-05-07 17:49 | 40.96634 | -73.77875 | 14504 ft | 401 kts | 45° |
| 2026-05-07 17:50 | 40.98464 | -73.75079 | 15268 ft | 404 kts | 45° |
| 2026-05-07 17:50 | 41.00317 | -73.72247 | 16010 ft | 408 kts | 45° |
| 2026-05-07 17:50 | 41.02181 | -73.69395 | 16771 ft | 412 kts | 45° |
| 2026-05-07 17:50 | 41.04056 | -73.66522 | 17543 ft | 415 kts | 45° |
| 2026-05-07 17:51 | 41.05950 | -73.63617 | 18247 ft | 418 kts | 45° |
| 2026-05-07 17:51 | 41.07864 | -73.60682 | 18780 ft | 425 kts | 45° |
| 2026-05-07 17:51 | 41.09814 | -73.57687 | 19282 ft | 432 kts | 45° |
| 2026-05-07 17:51 | 41.11788 | -73.54652 | 19776 ft | 439 kts | 45° |
| 2026-05-07 17:52 | 41.13791 | -73.51568 | 20281 ft | 445 kts | 45° |
| 2026-05-07 17:52 | 41.15802 | -73.48469 | 20767 ft | 452 kts | 45° |
| 2026-05-07 17:52 | 41.17870 | -73.45278 | 20990 ft | 460 kts | 45° |
| 2026-05-07 17:52 | 41.19971 | -73.42032 | 20987 ft | 460 kts | 45° |
| 2026-05-07 17:53 | 41.22027 | -73.38855 | 20937 ft | 459 kts | 44° |
| 2026-05-07 17:53 | 41.24139 | -73.35587 | 20891 ft | 474 kts | 45° |
| 2026-05-07 17:53 | 41.26320 | -73.32208 | 20887 ft | 489 kts | 45° |
| 2026-05-07 17:53 | 41.28551 | -73.28748 | 20852 ft | 503 kts | 45° |
| 2026-05-07 17:54 | 41.30858 | -73.25165 | 20859 ft | 515 kts | 45° |
| 2026-05-07 17:54 | 41.33208 | -73.21512 | 20863 ft | 523 kts | 45° |
| 2026-05-07 17:54 | 41.35549 | -73.17816 | 20873 ft | 527 kts | 49° |
| 2026-05-07 17:54 | 41.37514 | -73.13678 | 20908 ft | 531 kts | 64° |
| 2026-05-07 17:55 | 41.38654 | -73.09038 | 20884 ft | 527 kts | 81° |
| 2026-05-07 17:55 | 41.39209 | -73.04217 | 20896 ft | 526 kts | 84° |
| 2026-05-07 17:55 | 41.39748 | -72.99390 | 20883 ft | 526 kts | 84° |
| 2026-05-07 17:55 | 41.40270 | -72.94573 | 20845 ft | 526 kts | 84° |
| 2026-05-07 17:56 | 41.40788 | -72.89740 | 20863 ft | 528 kts | 84° |
| 2026-05-07 17:56 | 41.41304 | -72.84906 | 20877 ft | 529 kts | 84° |
| 2026-05-07 17:56 | 41.41820 | -72.80059 | 20872 ft | 529 kts | 84° |
| 2026-05-07 17:56 | 41.42334 | -72.75200 | 20878 ft | 529 kts | 84° |
| 2026-05-07 17:57 | 41.42845 | -72.70351 | 20862 ft | 529 kts | 85° |
| 2026-05-07 17:57 | 41.43184 | -72.67128 | 20862 ft | 529 kts | 85° |
| 2026-05-07 17:57 | 41.43863 | -72.60635 | 20856 ft | 529 kts | 85° |
| 2026-05-07 17:57 | 41.44368 | -72.55777 | 20847 ft | 530 kts | 85° |
| 2026-05-07 17:58 | 41.44873 | -72.50916 | 20860 ft | 531 kts | 85° |
| 2026-05-07 17:58 | 41.45377 | -72.46040 | 20858 ft | 531 kts | 85° |
| 2026-05-07 17:58 | 41.45878 | -72.41160 | 20863 ft | 532 kts | 85° |
| 2026-05-07 17:58 | 41.46378 | -72.36277 | 20857 ft | 532 kts | 85° |
| 2026-05-07 17:59 | 41.46876 | -72.31391 | 20862 ft | 532 kts | 85° |
| 2026-05-07 17:59 | 41.47373 | -72.26510 | 20859 ft | 532 kts | 85° |
| 2026-05-07 17:59 | 41.48094 | -72.21672 | 20834 ft | 535 kts | 73° |
| 2026-05-07 17:59 | 41.49497 | -72.17083 | 20862 ft | 538 kts | 65° |
| 2026-05-07 18:00 | 41.51070 | -72.12553 | 20852 ft | 538 kts | 64° |
| 2026-05-07 18:00 | 41.52678 | -72.08043 | 20851 ft | 538 kts | 64° |
| 2026-05-07 18:00 | 41.54282 | -72.03608 | 20851 ft | 538 kts | 63° |
| 2026-05-07 18:00 | 41.55817 | -71.99054 | 20851 ft | 538 kts | 68° |
| 2026-05-07 18:01 | 41.57221 | -71.94444 | 20036 ft | 534 kts | 68° |
| 2026-05-07 18:01 | 41.58620 | -71.89921 | 19304 ft | 521 kts | 68° |
| 2026-05-07 18:01 | 41.59948 | -71.85503 | 18586 ft | 506 kts | 69° |
| 2026-05-07 18:01 | 41.61192 | -71.81268 | 18640 ft | 478 kts | 69° |
| 2026-05-07 18:02 | 41.63542 | -71.73303 | 18684 ft | 440 kts | 69° |
| 2026-05-07 18:02 | 41.64638 | -71.69585 | 18724 ft | 423 kts | 69° |
| 2026-05-07 18:02 | 41.65697 | -71.65987 | 18749 ft | 408 kts | 69° |
| 2026-05-07 18:03 | 41.66717 | -71.62516 | 18769 ft | 397 kts | 69° |
| 2026-05-07 18:03 | 41.67739 | -71.59035 | 18604 ft | 410 kts | 69° |
| 2026-05-07 18:03 | 41.68782 | -71.55471 | 18183 ft | 412 kts | 69° |
| 2026-05-07 18:03 | 41.69831 | -71.51883 | 17722 ft | 416 kts | 70° |
| 2026-05-07 18:04 | 41.70885 | -71.48279 | 17254 ft | 416 kts | 69° |
| 2026-05-07 18:04 | 41.71933 | -71.44686 | 16905 ft | 414 kts | 69° |
| 2026-05-07 18:04 | 41.73199 | -71.41208 | 16300 ft | 418 kts | 59° |
| 2026-05-07 18:04 | 41.74653 | -71.37844 | 15846 ft | 418 kts | 59° |
| 2026-05-07 18:05 | 41.76102 | -71.34460 | 15337 ft | 420 kts | 59° |
| 2026-05-07 18:05 | 41.77546 | -71.31083 | 14828 ft | 415 kts | 59° |
| 2026-05-07 18:05 | 41.78968 | -71.27748 | 14298 ft | 408 kts | 59° |
| 2026-05-07 18:05 | 41.80360 | -71.24483 | 13795 ft | 401 kts | 58° |
| 2026-05-07 18:06 | 41.81731 | -71.21265 | 13287 ft | 394 kts | 58° |
| 2026-05-07 18:06 | 41.83073 | -71.18109 | 12779 ft | 386 kts | 58° |
| 2026-05-07 18:06 | 41.84360 | -71.15079 | 12320 ft | 378 kts | 58° |
| 2026-05-07 18:06 | 41.85654 | -71.12045 | 11919 ft | 369 kts | 57° |
| 2026-05-07 18:07 | 41.86920 | -71.09125 | 11673 ft | 356 kts | 57° |
| 2026-05-07 18:07 | 41.88159 | -71.06262 | 11491 ft | 355 kts | 57° |
| 2026-05-07 18:07 | 41.89394 | -71.03402 | 11304 ft | 353 kts | 57° |
| 2026-05-07 18:07 | 41.90624 | -71.00550 | 11062 ft | 352 kts | 57° |
| 2026-05-07 18:08 | 41.91835 | -70.97738 | 10830 ft | 349 kts | 57° |
| 2026-05-07 18:08 | 41.93047 | -70.94922 | 10634 ft | 345 kts | 57° |
| 2026-05-07 18:08 | 41.94335 | -70.92242 | 10342 ft | 338 kts | 44° |
| 2026-05-07 18:08 | 41.95973 | -70.90045 | 10077 ft | 329 kts | 36° |
| 2026-05-07 18:09 | 41.97664 | -70.87986 | 9772 ft | 327 kts | 36° |
| 2026-05-07 18:09 | 41.99286 | -70.85855 | 9427 ft | 330 kts | 47° |
| 2026-05-07 18:09 | 42.00519 | -70.83213 | 9058 ft | 334 kts | 56° |
| 2026-05-07 18:09 | 42.01700 | -70.80608 | 8880 ft | 326 kts | 54° |
| 2026-05-07 18:10 | 42.02901 | -70.78050 | 8607 ft | 322 kts | 53° |
| 2026-05-07 18:10 | 42.04100 | -70.75536 | 8364 ft | 317 kts | 53° |
| 2026-05-07 18:10 | 42.05292 | -70.73060 | 8099 ft | 313 kts | 52° |
| 2026-05-07 18:10 | 42.06466 | -70.70634 | 7991 ft | 309 kts | 52° |
| 2026-05-07 18:11 | 42.07645 | -70.68204 | 7988 ft | 310 kts | 52° |
| 2026-05-07 18:11 | 42.08435 | -70.66576 | 8003 ft | 311 kts | 52° |
| 2026-05-07 18:11 | 42.10046 | -70.63409 | 7915 ft | 307 kts | 42° |
| 2026-05-07 18:11 | 42.11727 | -70.61795 | 7688 ft | 291 kts | 15° |
| 2026-05-07 18:12 | 42.13633 | -70.61250 | 7453 ft | 274 kts | 351° |
| 2026-05-07 18:12 | 42.15506 | -70.61508 | 7220 ft | 269 kts | 346° |
| 2026-05-07 18:12 | 42.17341 | -70.61855 | 6891 ft | 263 kts | 346° |
| 2026-05-07 18:12 | 42.19143 | -70.62236 | 6378 ft | 261 kts | 346° |
| 2026-05-07 18:13 | 42.20923 | -70.62650 | 5892 ft | 259 kts | 346° |
| 2026-05-07 18:13 | 42.22684 | -70.63085 | 5394 ft | 257 kts | 346° |
| 2026-05-07 18:13 | 42.24437 | -70.63535 | 4846 ft | 256 kts | 346° |
| 2026-05-07 18:13 | 42.26183 | -70.64001 | 4268 ft | 256 kts | 346° |
| 2026-05-07 18:14 | 42.27927 | -70.64472 | 3723 ft | 255 kts | 346° |
| 2026-05-07 18:14 | 42.29672 | -70.64945 | 3365 ft | 255 kts | 346° |
| 2026-05-07 18:14 | 42.31393 | -70.65411 | 3086 ft | 253 kts | 346° |
| 2026-05-07 18:14 | 42.33110 | -70.65878 | 2982 ft | 252 kts | 346° |
| 2026-05-07 18:15 | 42.34834 | -70.66352 | 2984 ft | 254 kts | 346° |
| 2026-05-07 18:15 | 42.36530 | -70.66808 | 2984 ft | 239 kts | 346° |
| 2026-05-07 18:15 | 42.38093 | -70.67223 | 2969 ft | 219 kts | 346° |
| 2026-05-07 18:15 | 42.39528 | -70.67701 | 2975 ft | 209 kts | 330° |
| 2026-05-07 18:16 | 42.40598 | -70.68938 | 2968 ft | 203 kts | 301° |
| 2026-05-07 18:16 | 42.40992 | -70.70743 | 2974 ft | 204 kts | 270° |
| 2026-05-07 18:16 | 42.40705 | -70.72627 | 3004 ft | 206 kts | 257° |
| 2026-05-07 18:16 | 42.40331 | -70.74502 | 3011 ft | 206 kts | 257° |
| 2026-05-07 18:17 | 42.39983 | -70.76383 | 2993 ft | 206 kts | 258° |
| 2026-05-07 18:17 | 42.39649 | -70.78243 | 2988 ft | 206 kts | 258° |
| 2026-05-07 18:17 | 42.39312 | -70.80127 | 2825 ft | 199 kts | 259° |
| 2026-05-07 18:17 | 42.38993 | -70.81930 | 2551 ft | 194 kts | 258° |
| 2026-05-07 18:18 | 42.38684 | -70.83680 | 2294 ft | 188 kts | 259° |
| 2026-05-07 18:18 | 42.38388 | -70.85355 | 2044 ft | 183 kts | 258° |
| 2026-05-07 18:18 | 42.38094 | -70.87025 | 1804 ft | 178 kts | 259° |
| 2026-05-07 18:18 | 42.37812 | -70.88625 | 1563 ft | 170 kts | 259° |
| 2026-05-07 18:19 | 42.37551 | -70.90099 | 1346 ft | 151 kts | 260° |
| 2026-05-07 18:19 | 42.37325 | -70.91378 | 1200 ft | 134 kts | 261° |
| 2026-05-07 18:19 | 42.37112 | -70.92591 | 1009 ft | 130 kts | 261° |
| 2026-05-07 18:19 | 42.36907 | -70.93767 | 810 ft | 128 kts | 259° |
| 2026-05-07 18:20 | 42.36699 | -70.94939 | 621 ft | 129 kts | 259° |
| 2026-05-07 18:20 | 42.36494 | -70.96124 | 471 ft | 131 kts | 259° |
| 2026-05-07 18:20 | 42.36280 | -70.97336 | 285 ft | 135 kts | 257° |
| 2026-05-07 18:20 | 42.36060 | -70.98547 | 119 ft | 130 kts | 258° |
| 2026-05-07 18:21 | 42.35861 | -70.99676 | 29 ft | 107 kts | 257° |
| 2026-05-07 18:21 | 42.35751 | -71.00307 | 26 ft | 47 kts | 261° |
| 2026-05-07 18:21 | 42.35778 | -71.00632 | 26 ft | 14 kts | 278° |
| 2026-05-07 18:21 | 42.35784 | -71.00691 | 25 ft | 0 kts | 278° |
| 2026-05-07 18:22 | 42.35785 | -71.00702 | 26 ft | 4 kts | 278° |
| 2026-05-07 18:22 | 42.35787 | -71.00719 | 24 ft | 8 kts | 278° |
| 2026-05-07 18:22 | 42.35813 | -71.00940 | 25 ft | 25 kts | 278° |
| 2026-05-07 18:22 | 42.35836 | -71.01173 | 28 ft | 24 kts | 278° |
| 2026-05-07 18:23 | 42.35857 | -71.01356 | 27 ft | 20 kts | 279° |
| 2026-05-07 18:23 | 42.35882 | -71.01547 | 28 ft | 21 kts | 280° |
| 2026-05-07 18:23 | 42.35940 | -71.01638 | 28 ft | 7 kts | 20° |
| 2026-05-07 18:23 | 42.36003 | -71.01601 | 27 ft | 9 kts | 11° |
| 2026-05-07 18:24 | 42.36031 | -71.01649 | 27 ft | 12 kts | 290° |
| 2026-05-07 18:24 | 42.36045 | -71.01699 | 26 ft | 0 kts | 291° |